Time;durP1;ratioP1;P1;durP2;ratioP2;P2;SDS_P1;SDS_P2;PMS_P1;PMS_P2;Temp;Humidity;BMP_temperature;BMP_pressure;BME280_temperature;BME280_humidity;BME280_pressure;Samples;Min_cycle;Max_cycle;Signal;HPM_P1;HPM_P2
2024/01/06 00:00:16;;;;;;;12.87;8.20;;;14.30;80.00;;;;;;4594908;19;19999;-73
2024/01/06 00:02:11;;;;;;;11.17;8.23;;;14.30;80.10;;;;;;4595056;19;20007;-73
2024/01/06 00:03:46;;;;;;;11.23;7.50;;;14.30;80.10;;;;;;4594822;19;20315;-73
2024/01/06 00:05:20;;;;;;;12.97;8.63;;;14.20;80.10;;;;;;4594677;19;19999;-73
2024/01/06 00:06:55;;;;;;;10.90;8.20;;;14.20;80.10;;;;;;4595179;19;20019;-74
2024/01/06 00:08:29;;;;;;;13.23;8.27;;;14.20;80.10;;;;;;4594703;19;20009;-73
2024/01/06 00:10:03;;;;;;;11.73;7.70;;;14.20;80.10;;;;;;4595109;19;19994;-73
2024/01/06 00:11:38;;;;;;;11.63;8.00;;;14.20;80.20;;;;;;4594991;19;19998;-73
2024/01/06 00:13:13;;;;;;;10.90;7.97;;;14.10;80.00;;;;;;4595280;19;20026;-73
2024/01/06 00:14:46;;;;;;;12.80;8.60;;;14.10;79.90;;;;;;4594909;19;20003;-73
2024/01/06 00:16:22;;;;;;;11.13;7.20;;;14.10;80.60;;;;;;4593655;19;20065;-73
2024/01/06 00:17:56;;;;;;;11.07;7.63;;;14.10;80.00;;;;;;4594975;19;19999;-73
2024/01/06 00:19:30;;;;;;;11.10;7.87;;;14.10;80.10;;;;;;4594929;19;20035;-73
2024/01/06 00:21:05;;;;;;;12.53;8.23;;;14.10;80.10;;;;;;4594945;19;20086;-73
2024/01/06 00:22:39;;;;;;;11.60;8.13;;;14.10;80.10;;;;;;4594858;19;20003;-73
2024/01/06 00:24:13;;;;;;;10.50;7.53;;;14.10;80.10;;;;;;4593731;19;20006;-73
2024/01/06 00:25:49;;;;;;;12.47;8.70;;;14.10;80.10;;;;;;4593962;19;20418;-73
2024/01/06 00:27:23;;;;;;;12.70;8.90;;;14.00;80.10;;;;;;4595000;19;20006;-73
2024/01/06 00:28:58;;;;;;;10.93;7.80;;;14.00;80.30;;;;;;4594711;19;20379;-73
2024/01/06 00:30:34;;;;;;;12.00;8.77;;;14.00;80.20;;;;;;4595006;19;20044;-73
2024/01/06 00:32:09;;;;;;;11.90;8.80;;;14.00;80.10;;;;;;4594871;19;20002;-73
2024/01/06 00:33:43;;;;;;;11.90;8.40;;;14.00;80.20;;;;;;4593243;19;20407;-73
2024/01/06 00:35:18;;;;;;;11.73;8.33;;;14.00;80.30;;;;;;4594212;19;20074;-73
2024/01/06 00:36:52;;;;;;;10.40;7.93;;;14.00;81.00;;;;;;4594537;19;19998;-73
2024/01/06 00:38:26;;;;;;;13.00;8.73;;;14.00;80.60;;;;;;4594378;19;20007;-74
2024/01/06 00:40:01;;;;;;;12.70;7.97;;;14.00;80.50;;;;;;4594485;19;20026;-73
2024/01/06 00:41:36;;;;;;;12.07;8.10;;;14.00;80.50;;;;;;4594447;19;19995;-73
2024/01/06 00:43:11;;;;;;;13.20;8.67;;;13.90;80.50;;;;;;4594388;19;19998;-73
2024/01/06 00:44:47;;;;;;;13.90;9.80;;;13.90;80.70;;;;;;4593193;19;20003;-73
2024/01/06 00:46:21;;;;;;;11.17;8.57;;;13.90;80.70;;;;;;4593017;19;20013;-73
2024/01/06 00:47:55;;;;;;;11.23;8.10;;;13.90;80.80;;;;;;4594329;19;20002;-73
2024/01/06 00:49:30;;;;;;;12.70;8.13;;;13.90;80.80;;;;;;4594333;19;20344;-73
2024/01/06 00:51:04;;;;;;;10.63;7.80;;;13.90;80.80;;;;;;4594538;19;19999;-73
2024/01/06 00:52:38;;;;;;;12.83;9.70;;;13.90;80.90;;;;;;4594478;19;20007;-74
2024/01/06 00:54:15;;;;;;;10.97;8.03;;;13.90;80.80;;;;;;4594291;19;20010;-74
2024/01/06 00:55:51;;;;;;;12.50;8.77;;;13.90;80.80;;;;;;4593322;19;20015;-73
2024/01/06 00:57:26;;;;;;;11.57;8.93;;;13.90;80.90;;;;;;4594085;19;20040;-73
2024/01/06 00:59:01;;;;;;;12.07;8.80;;;13.90;81.50;;;;;;4594113;19;20023;-73
2024/01/06 01:16:17;;;;;;;14.63;9.50;;;13.80;81.60;;;;;;4564617;19;20045;-74
2024/01/06 01:17:52;;;;;;;13.17;8.90;;;13.80;81.60;;;;;;4592638;19;20435;-75
2024/01/06 01:19:26;;;;;;;14.23;9.70;;;13.80;81.70;;;;;;4593187;19;20010;-74
2024/01/06 01:21:00;;;;;;;13.57;9.67;;;13.80;81.60;;;;;;4592419;19;20305;-75
2024/01/06 01:22:35;;;;;;;12.43;9.43;;;13.80;81.60;;;;;;4593616;19;20009;-75
2024/01/06 01:24:10;;;;;;;12.27;9.17;;;13.80;81.70;;;;;;4592840;19;20006;-74
2024/01/06 01:25:44;;;;;;;11.53;9.27;;;13.80;81.60;;;;;;4593389;19;20019;-75
2024/01/06 01:27:19;;;;;;;12.27;9.40;;;13.80;81.70;;;;;;4593791;19;20004;-75
2024/01/06 01:28:53;;;;;;;12.80;9.77;;;13.80;81.80;;;;;;4593491;19;20306;-75
2024/01/06 01:30:30;;;;;;;13.10;8.90;;;13.80;81.70;;;;;;4593431;19;20023;-75
2024/01/06 01:32:06;;;;;;;13.10;9.70;;;13.80;81.70;;;;;;4593580;19;20003;-75
2024/01/06 01:33:40;;;;;;;12.20;8.93;;;13.80;81.80;;;;;;4593617;19;20455;-75
2024/01/06 01:35:14;;;;;;;12.37;9.10;;;13.70;81.80;;;;;;4593359;19;19998;-74
2024/01/06 01:36:50;;;;;;;12.33;9.37;;;13.70;81.70;;;;;;4592445;19;20020;-74
2024/01/06 01:38:24;;;;;;;13.37;9.90;;;13.70;81.60;;;;;;4593562;19;20437;-75
2024/01/06 01:40:01;;;;;;;14.87;9.97;;;13.70;81.60;;;;;;4593516;19;20010;-75
2024/01/06 01:41:37;;;;;;;14.47;9.63;;;13.80;81.80;;;;;;4593283;19;20429;-75
2024/01/06 01:43:23;;;;;;;12.67;8.70;;;13.70;81.80;;;;;;4593225;19;20505;-75
2024/01/06 01:44:58;;;;;;;12.40;9.43;;;13.70;81.80;;;;;;4591888;19;20013;-74
2024/01/06 01:46:34;;;;;;;13.50;9.60;;;13.70;81.70;;;;;;4591342;19;20442;-75
2024/01/06 01:48:08;;;;;;;13.53;10.60;;;13.70;81.70;;;;;;4592803;19;20002;-75
2024/01/06 01:49:44;;;;;;;12.10;9.67;;;13.70;81.80;;;;;;4593089;19;20050;-75
2024/01/06 01:51:19;;;;;;;13.67;10.20;;;13.70;81.70;;;;;;4593554;19;20017;-75
2024/01/06 01:52:53;;;;;;;13.10;9.80;;;13.70;81.70;;;;;;4592972;19;19995;-74
2024/01/06 01:54:26;;;;;;;12.67;10.10;;;13.70;81.60;;;;;;4593293;19;20437;-75
2024/01/06 01:56:04;;;;;;;13.83;9.57;;;13.70;81.60;;;;;;4591541;19;19998;-74
2024/01/06 01:57:37;;;;;;;13.43;9.60;;;13.70;81.60;;;;;;4592696;19;20100;-74
2024/01/06 01:59:16;;;;;;;14.60;9.67;;;13.70;81.60;;;;;;4591561;19;19995;-74
2024/01/06 02:00:52;;;;;;;12.33;9.70;;;13.70;81.70;;;;;;4591618;19;20006;-74
2024/01/06 02:02:28;;;;;;;15.70;11.87;;;13.70;81.70;;;;;;4591441;19;19998;-74
2024/01/06 02:04:02;;;;;;;14.07;10.70;;;13.70;81.90;;;;;;4590977;19;20014;-74
2024/01/06 02:05:38;;;;;;;14.00;10.83;;;13.70;82.40;;;;;;4591459;19;20130;-74
2024/01/06 02:07:12;;;;;;;13.97;10.10;;;13.70;81.80;;;;;;4592405;19;20002;-74
2024/01/06 02:08:46;;;;;;;13.47;10.97;;;13.70;81.90;;;;;;4592687;19;19998;-74
2024/01/06 02:10:21;;;;;;;15.27;10.57;;;13.70;81.90;;;;;;4592964;19;20022;-74
2024/01/06 02:11:58;;;;;;;13.07;10.50;;;13.70;82.00;;;;;;4591580;19;20058;-74
2024/01/06 02:13:38;;;;;;;14.23;10.03;;;13.70;82.00;;;;;;4592371;19;20002;-74
2024/01/06 02:15:13;;;;;;;14.27;10.35;;;13.70;82.00;;;;;;4591373;19;20006;-75
2024/01/06 02:16:47;;;;;;;13.70;10.23;;;13.70;81.80;;;;;;4591296;19;20018;-75
2024/01/06 02:18:20;;;;;;;14.30;10.90;;;13.70;81.80;;;;;;4592514;19;20002;-74
2024/01/06 02:19:56;;;;;;;13.77;9.83;;;13.70;81.80;;;;;;4592568;19;20006;-75
2024/01/06 02:21:32;;;;;;;14.70;10.10;;;13.60;81.80;;;;;;4591100;19;20007;-74
2024/01/06 02:23:07;;;;;;;14.97;10.50;;;13.70;81.90;;;;;;4591098;19;20038;-74
2024/01/06 02:24:43;;;;;;;13.47;10.43;;;13.70;81.80;;;;;;4591067;19;20006;-74
2024/01/06 02:26:17;;;;;;;12.70;10.20;;;13.70;81.80;;;;;;4592120;19;20298;-75
2024/01/06 02:27:51;;;;;;;15.63;11.70;;;13.60;81.70;;;;;;4592583;19;20013;-74
2024/01/06 02:29:27;;;;;;;14.87;10.73;;;13.60;81.80;;;;;;4592640;19;20311;-74
2024/01/06 02:31:01;;;;;;;12.63;10.33;;;13.60;81.70;;;;;;4592223;19;20068;-74
2024/01/06 02:32:35;;;;;;;15.03;11.00;;;13.60;81.80;;;;;;4589968;19;19998;-75
2024/01/06 02:34:11;;;;;;;14.47;11.27;;;13.60;81.70;;;;;;4592229;19;20011;-74
2024/01/06 02:35:46;;;;;;;14.20;10.40;;;13.60;81.60;;;;;;4592040;19;19990;-74
2024/01/06 02:37:19;;;;;;;13.50;9.90;;;13.60;81.80;;;;;;4592224;19;19990;-74
2024/01/06 02:38:55;;;;;;;13.93;10.67;;;13.60;81.80;;;;;;4592134;19;20078;-75
2024/01/06 02:40:29;;;;;;;13.03;10.07;;;13.60;81.80;;;;;;4592102;19;19998;-74
2024/01/06 02:42:04;;;;;;;13.67;10.40;;;13.60;81.90;;;;;;4592330;19;20429;-74
2024/01/06 02:43:40;;;;;;;14.40;10.37;;;13.60;82.00;;;;;;4592097;19;20031;-74
2024/01/06 02:45:14;;;;;;;12.27;9.87;;;13.60;81.80;;;;;;4590774;19;20039;-74
2024/01/06 02:46:47;;;;;;;13.87;10.63;;;13.60;81.80;;;;;;4590705;19;20002;-74
2024/01/06 02:48:22;;;;;;;14.47;10.53;;;13.60;81.90;;;;;;4592066;19;20082;-74
2024/01/06 02:49:57;;;;;;;13.97;10.20;;;13.60;81.90;;;;;;4592237;19;20386;-74
2024/01/06 02:51:32;;;;;;;13.03;10.47;;;13.60;81.80;;;;;;4591868;19;20025;-74
2024/01/06 02:53:09;;;;;;;14.30;10.23;;;13.60;81.80;;;;;;4591963;19;20014;-74
2024/01/06 02:54:44;;;;;;;13.90;10.77;;;13.60;81.70;;;;;;4591955;19;20353;-74
2024/01/06 02:56:18;;;;;;;13.63;10.40;;;13.60;81.70;;;;;;4591291;19;20419;-74
2024/01/06 02:57:53;;;;;;;12.30;9.73;;;13.60;81.90;;;;;;4590576;19;20034;-74
2024/01/06 02:59:27;;;;;;;13.20;10.60;;;13.60;81.90;;;;;;4591439;19;20003;-74
2024/01/06 03:01:01;;;;;;;15.07;10.90;;;13.60;81.90;;;;;;4591793;19;20010;-74
2024/01/06 03:02:37;;;;;;;12.63;9.90;;;13.60;81.90;;;;;;4592037;19;20009;-75
2024/01/06 03:04:11;;;;;;;13.43;10.10;;;13.60;81.90;;;;;;4591022;19;20003;-74
2024/01/06 03:05:48;;;;;;;12.23;9.27;;;13.60;81.80;;;;;;4591437;19;20019;-74
2024/01/06 03:07:25;;;;;;;13.07;9.90;;;13.60;81.90;;;;;;4590411;19;20013;-74
2024/01/06 03:08:59;;;;;;;14.17;9.73;;;13.60;81.70;;;;;;4591590;19;20409;-74
2024/01/06 03:10:34;;;;;;;12.67;10.10;;;13.60;81.60;;;;;;4591597;19;20006;-74
2024/01/06 03:12:10;;;;;;;12.80;9.20;;;13.60;81.80;;;;;;4591704;19;20425;-74
2024/01/06 03:13:44;;;;;;;12.40;9.17;;;13.60;81.60;;;;;;4591576;19;20376;-74
2024/01/06 03:15:18;;;;;;;12.13;9.57;;;13.60;81.80;;;;;;4591837;19;20009;-74
2024/01/06 03:16:54;;;;;;;13.10;9.57;;;13.60;81.80;;;;;;4590801;19;20027;-74
2024/01/06 03:18:28;;;;;;;13.17;9.93;;;13.60;81.80;;;;;;4591790;19;20377;-74
2024/01/06 03:20:03;;;;;;;13.60;9.50;;;13.60;81.70;;;;;;4591481;19;20069;-74
2024/01/06 03:21:41;;;;;;;11.77;9.37;;;13.60;81.70;;;;;;4591497;19;20018;-74
2024/01/06 03:23:16;;;;;;;12.57;10.20;;;13.60;81.70;;;;;;4591459;19;20003;-74
2024/01/06 03:24:50;;;;;;;13.13;10.03;;;13.60;81.90;;;;;;4590446;19;19999;-74
2024/01/06 03:26:26;;;;;;;13.80;10.73;;;13.60;82.00;;;;;;4591119;19;20006;-74
2024/01/06 03:28:00;;;;;;;13.23;8.97;;;13.50;81.70;;;;;;4591603;19;20004;-74
2024/01/06 03:29:34;;;;;;;12.37;9.13;;;13.60;81.80;;;;;;4591339;19;20086;-74
2024/01/06 03:31:09;;;;;;;13.80;9.67;;;13.50;81.80;;;;;;4591335;19;20010;-74
2024/01/06 03:32:44;;;;;;;12.67;9.80;;;13.60;81.90;;;;;;4591260;19;19998;-74
2024/01/06 03:34:19;;;;;;;11.77;9.23;;;13.50;81.70;;;;;;4591227;19;20070;-74
2024/01/06 03:35:55;;;;;;;10.90;8.53;;;13.60;81.80;;;;;;4590957;19;20002;-75
2024/01/06 03:37:30;;;;;;;11.60;9.53;;;13.60;82.40;;;;;;4591490;19;19998;-75
2024/01/06 03:39:05;;;;;;;13.63;9.83;;;13.50;81.80;;;;;;4591441;19;19995;-75
2024/01/06 03:40:41;;;;;;;11.20;8.53;;;13.50;81.80;;;;;;4589869;19;20007;-74
2024/01/06 03:42:15;;;;;;;13.17;9.73;;;13.50;81.80;;;;;;4590833;19;20006;-74
2024/01/06 03:43:49;;;;;;;13.30;9.60;;;13.60;81.80;;;;;;4592829;19;20002;-74
2024/01/06 03:45:25;;;;;;;12.40;9.50;;;13.50;81.70;;;;;;4595685;19;19999;-74
2024/01/06 03:46:59;;;;;;;12.20;8.37;;;13.50;81.70;;;;;;4594052;19;20018;-74
2024/01/06 03:48:33;;;;;;;10.77;8.37;;;13.50;81.80;;;;;;4595611;19;20003;-74
2024/01/06 03:50:09;;;;;;;9.97;8.47;;;13.50;81.70;;;;;;4595605;19;20287;-74
2024/01/06 03:51:44;;;;;;;12.87;9.53;;;13.50;81.60;;;;;;4594563;19;20401;-74
2024/01/06 03:53:18;;;;;;;11.37;8.73;;;13.50;81.60;;;;;;4595363;19;20010;-74
2024/01/06 03:54:53;;;;;;;13.87;10.00;;;13.50;81.70;;;;;;4595940;19;20421;-74
2024/01/06 03:56:28;;;;;;;11.23;8.90;;;13.50;81.60;;;;;;4594399;19;20429;-75
2024/01/06 03:58:02;;;;;;;12.17;10.23;;;13.50;81.70;;;;;;4595391;19;20002;-74
2024/01/06 03:59:37;;;;;;;12.23;9.73;;;13.50;81.80;;;;;;4596354;19;20020;-74
2024/01/06 04:01:12;;;;;;;13.40;9.80;;;13.60;81.90;;;;;;4595590;19;20007;-74
2024/01/06 04:02:47;;;;;;;12.87;10.03;;;13.50;81.80;;;;;;4595325;19;20005;-74
2024/01/06 04:04:22;;;;;;;14.27;10.00;;;13.50;81.60;;;;;;4594328;19;20010;-75
2024/01/06 04:05:56;;;;;;;12.60;9.17;;;13.50;81.60;;;;;;4594746;19;20015;-75
2024/01/06 04:07:30;;;;;;;13.00;9.00;;;13.50;81.70;;;;;;4595175;19;20793;-74
2024/01/06 04:09:05;;;;;;;13.43;9.17;;;13.50;81.60;;;;;;4595183;19;20005;-74
2024/01/06 04:10:41;;;;;;;13.87;9.90;;;13.50;81.50;;;;;;4595207;19;19994;-74
2024/01/06 04:12:16;;;;;;;13.53;9.17;;;13.50;81.40;;;;;;4595056;19;20006;-74
2024/01/06 04:13:52;;;;;;;13.67;9.57;;;13.50;81.30;;;;;;4593869;19;20072;-74
2024/01/06 04:15:26;;;;;;;15.53;10.47;;;13.50;81.40;;;;;;4593800;19;20473;-74
2024/01/06 04:17:01;;;;;;;15.00;10.20;;;13.50;81.30;;;;;;4592969;19;20022;-74
2024/01/06 04:18:36;;;;;;;16.07;11.57;;;13.50;81.30;;;;;;4595020;19;20357;-75
2024/01/06 04:20:12;;;;;;;14.13;10.40;;;13.50;81.50;;;;;;4593650;19;19999;-74
2024/01/06 04:21:48;;;;;;;12.27;9.03;;;13.50;81.40;;;;;;4594659;19;20440;-74
2024/01/06 04:23:24;;;;;;;11.77;7.87;;;13.50;81.30;;;;;;4594989;19;20002;-74
2024/01/06 04:24:58;;;;;;;9.90;7.70;;;13.50;81.40;;;;;;4593281;19;20445;-74
2024/01/06 04:26:32;;;;;;;11.03;8.33;;;13.50;81.30;;;;;;4593764;19;20488;-74
2024/01/06 04:28:08;;;;;;;10.17;8.03;;;13.50;81.40;;;;;;4594803;19;20011;-74
2024/01/06 04:29:43;;;;;;;10.57;8.13;;;13.50;81.30;;;;;;4594757;19;20006;-74
2024/01/06 04:31:17;;;;;;;11.20;7.77;;;13.50;81.40;;;;;;4594672;19;20002;-74
2024/01/06 04:32:54;;;;;;;10.20;8.03;;;13.50;81.20;;;;;;4594685;19;20002;-75
2024/01/06 04:34:29;;;;;;;9.43;7.47;;;13.50;81.00;;;;;;4594554;19;20755;-75
2024/01/06 04:36:02;;;;;;;10.10;7.27;;;13.50;80.90;;;;;;4594118;19;20005;-74
2024/01/06 04:37:38;;;;;;;9.23;7.03;;;13.50;80.90;;;;;;4594915;19;20098;-74
2024/01/06 04:39:13;;;;;;;10.60;7.47;;;13.50;80.90;;;;;;4594481;19;20010;-75
2024/01/06 04:40:47;;;;;;;10.57;7.70;;;13.50;81.00;;;;;;4593436;19;20066;-74
2024/01/06 04:42:22;;;;;;;10.97;7.87;;;13.50;81.10;;;;;;4594246;19;20010;-74
2024/01/06 04:43:57;;;;;;;10.30;7.23;;;13.50;81.00;;;;;;4593941;19;20003;-74
2024/01/06 04:45:31;;;;;;;10.20;7.73;;;13.50;81.10;;;;;;4594400;19;20003;-74
2024/01/06 04:47:08;;;;;;;10.93;7.70;;;13.50;81.20;;;;;;4593131;19;20013;-75
2024/01/06 04:48:43;;;;;;;9.53;7.20;;;13.50;80.80;;;;;;4594364;19;20026;-75
2024/01/06 04:50:17;;;;;;;10.23;6.57;;;13.50;80.90;;;;;;4594381;19;20007;-75
2024/01/06 04:51:52;;;;;;;8.60;6.77;;;13.50;81.00;;;;;;4594367;19;20003;-74
2024/01/06 04:53:27;;;;;;;11.77;8.07;;;13.50;81.00;;;;;;4594218;19;20003;-75
2024/01/06 04:55:01;;;;;;;11.00;7.33;;;13.50;81.30;;;;;;4590896;19;19999;-75
2024/01/06 04:56:37;;;;;;;8.97;6.40;;;13.50;80.70;;;;;;4592933;19;20028;-74
2024/01/06 04:58:11;;;;;;;9.77;6.73;;;13.50;80.80;;;;;;4594187;19;20002;-75
2024/01/06 04:59:45;;;;;;;9.93;7.10;;;13.50;80.70;;;;;;4594344;19;20002;-75
2024/01/06 05:01:21;;;;;;;9.03;6.97;;;13.50;81.20;;;;;;4594215;19;20007;-75
2024/01/06 05:02:55;;;;;;;9.53;7.30;;;13.40;80.60;;;;;;4592713;19;20002;-74
2024/01/06 05:04:32;;;;;;;8.57;6.80;;;13.40;80.60;;;;;;4592762;19;19998;-75
2024/01/06 05:06:08;;;;;;;9.00;6.50;;;13.50;80.70;;;;;;4593460;19;20468;-75
2024/01/06 05:07:42;;;;;;;9.90;6.87;;;13.50;80.80;;;;;;4594212;19;20421;-75
2024/01/06 05:09:16;;;;;;;9.50;6.87;;;13.50;80.90;;;;;;4592635;19;20416;-75
2024/01/06 05:10:53;;;;;;;10.00;6.73;;;13.50;80.80;;;;;;4593898;19;20397;-75
2024/01/06 05:12:28;;;;;;;7.93;5.90;;;13.50;80.70;;;;;;4593883;19;19999;-75
2024/01/06 05:14:02;;;;;;;11.13;6.77;;;13.50;80.40;;;;;;4592803;19;20400;-75
2024/01/06 05:15:38;;;;;;;8.47;6.43;;;13.50;80.20;;;;;;4593450;19;20007;-76
2024/01/06 05:17:13;;;;;;;8.17;6.47;;;13.50;80.30;;;;;;4592291;19;20437;-76
2024/01/06 05:18:47;;;;;;;8.80;6.47;;;13.50;80.30;;;;;;4593720;19;20311;-76
2024/01/06 05:20:22;;;;;;;9.30;6.30;;;13.50;80.20;;;;;;4593713;19;20086;-76
2024/01/06 05:21:56;;;;;;;9.53;7.00;;;13.50;80.00;;;;;;4593637;19;20002;-76
2024/01/06 05:23:30;;;;;;;8.93;6.77;;;13.50;80.20;;;;;;4593950;19;20010;-76
2024/01/06 05:25:06;;;;;;;9.47;7.10;;;13.60;80.20;;;;;;4593673;19;20463;-77
2024/01/06 05:26:41;;;;;;;11.40;8.23;;;13.60;80.20;;;;;;4592671;19;20003;-76
2024/01/06 05:28:15;;;;;;;11.07;7.83;;;13.60;80.10;;;;;;4593782;19;20057;-75
2024/01/06 05:29:51;;;;;;;10.67;7.77;;;13.60;80.10;;;;;;4593610;19;20421;-74
2024/01/06 05:31:25;;;;;;;10.63;7.33;;;13.60;80.00;;;;;;4593456;19;20073;-74
2024/01/06 05:32:59;;;;;;;9.67;6.80;;;13.60;80.00;;;;;;4593714;19;20425;-74
2024/01/06 05:34:35;;;;;;;9.40;7.03;;;13.60;80.10;;;;;;4593531;19;20010;-74
2024/01/06 05:36:10;;;;;;;10.57;7.30;;;13.70;80.10;;;;;;4592937;19;20015;-74
2024/01/06 05:37:44;;;;;;;9.60;7.67;;;13.70;80.10;;;;;;4593386;19;19995;-74
2024/01/06 05:39:20;;;;;;;9.60;7.80;;;13.80;80.10;;;;;;4593619;19;20364;-75
2024/01/06 05:40:54;;;;;;;10.10;6.97;;;13.80;80.40;;;;;;4593281;19;20036;-74
2024/01/06 05:42:28;;;;;;;10.27;7.30;;;13.80;80.20;;;;;;4593225;19;20070;-74
2024/01/06 05:44:03;;;;;;;10.00;7.00;;;13.80;80.00;;;;;;4592825;19;20065;-74
2024/01/06 05:45:41;;;;;;;10.70;7.87;;;13.90;79.90;;;;;;4593038;19;20013;-75
2024/01/06 05:47:16;;;;;;;10.30;7.73;;;13.90;79.80;;;;;;4593217;19;20006;-74
2024/01/06 05:48:52;;;;;;;7.93;6.47;;;13.90;79.80;;;;;;4593165;19;20010;-74
2024/01/06 05:50:27;;;;;;;8.47;7.17;;;13.90;79.80;;;;;;4591744;19;20002;-74
2024/01/06 05:52:02;;;;;;;10.83;6.97;;;13.90;79.80;;;;;;4592697;19;20386;-75
2024/01/06 05:53:37;;;;;;;8.93;6.97;;;13.90;79.80;;;;;;4593093;19;20306;-74
2024/01/06 05:55:12;;;;;;;8.50;6.70;;;13.90;79.80;;;;;;4592996;19;20002;-74
2024/01/06 05:56:45;;;;;;;8.80;6.83;;;13.90;79.80;;;;;;4592038;19;20007;-75
2024/01/06 05:58:21;;;;;;;8.70;6.50;;;13.90;79.60;;;;;;4592939;19;20025;-75
2024/01/06 05:59:55;;;;;;;9.10;6.90;;;13.90;79.60;;;;;;4592898;19;20014;-75
2024/01/06 06:01:30;;;;;;;9.13;6.80;;;13.90;79.60;;;;;;4592940;19;20019;-75
2024/01/06 06:03:07;;;;;;;10.10;6.70;;;13.90;79.50;;;;;;4592888;19;20417;-75
2024/01/06 06:04:42;;;;;;;8.73;6.40;;;13.90;79.50;;;;;;4591958;19;20443;-75
2024/01/06 06:06:17;;;;;;;8.47;6.30;;;13.90;79.70;;;;;;4591551;19;20003;-75
2024/01/06 06:07:52;;;;;;;8.13;6.27;;;13.90;79.50;;;;;;4592845;19;20445;-75
2024/01/06 06:09:28;;;;;;;7.90;6.13;;;13.90;79.40;;;;;;4592963;19;20001;-75
2024/01/06 06:11:10;;;;;;;9.27;7.13;;;13.90;79.40;;;;;;4592755;19;20011;-74
2024/01/06 06:12:47;;;;;;;9.10;6.27;;;13.90;79.50;;;;;;4591345;19;20066;-75
2024/01/06 06:14:21;;;;;;;8.83;6.10;;;13.80;79.40;;;;;;4592534;19;20036;-75
2024/01/06 06:15:56;;;;;;;8.60;6.33;;;13.80;79.30;;;;;;4591884;19;20023;-74
2024/01/06 06:17:31;;;;;;;10.43;8.23;;;13.90;79.50;;;;;;4592628;19;20011;-75
2024/01/06 06:19:06;;;;;;;8.40;6.53;;;13.80;79.30;;;;;;4591145;19;20006;-75
2024/01/06 06:20:43;;;;;;;6.30;5.67;;;13.80;79.30;;;;;;4592350;19;20002;-75
2024/01/06 06:22:18;;;;;;;7.03;5.30;;;13.80;79.40;;;;;;4592784;19;20010;-75
2024/01/06 06:23:52;;;;;;;6.20;5.37;;;13.80;79.30;;;;;;4591075;19;19998;-75
2024/01/06 06:25:27;;;;;;;8.23;5.30;;;13.80;79.40;;;;;;4592061;19;20006;-74
2024/01/06 06:27:01;;;;;;;5.93;5.13;;;13.80;79.50;;;;;;4591329;19;20003;-74
2024/01/06 06:28:35;;;;;;;6.67;5.27;;;13.80;79.50;;;;;;4592600;19;20021;-74
2024/01/06 06:30:11;;;;;;;6.83;5.37;;;13.80;79.60;;;;;;4592497;19;20018;-74
2024/01/06 06:31:46;;;;;;;7.57;4.80;;;13.80;79.60;;;;;;4590922;19;20962;-74
2024/01/06 06:33:20;;;;;;;6.80;5.13;;;13.70;79.30;;;;;;4592719;19;20085;-74
2024/01/06 06:34:55;;;;;;;6.47;4.90;;;13.70;79.20;;;;;;4592531;19;20347;-74
2024/01/06 06:36:31;;;;;;;6.80;5.27;;;13.80;79.40;;;;;;4591510;19;20002;-74
2024/01/06 06:38:06;;;;;;;7.03;5.53;;;13.70;79.40;;;;;;4592177;19;20006;-74
2024/01/06 06:39:40;;;;;;;6.20;4.50;;;13.70;79.50;;;;;;4592195;19;20002;-75
2024/01/06 06:41:16;;;;;;;6.47;5.00;;;13.70;79.20;;;;;;4592199;19;20283;-74
2024/01/06 06:42:49;;;;;;;7.30;5.37;;;13.70;79.30;;;;;;4592128;19;19999;-74
2024/01/06 06:44:23;;;;;;;7.47;4.83;;;13.70;79.30;;;;;;4591465;19;20006;-74
2024/01/06 06:46:00;;;;;;;7.33;4.80;;;13.70;79.50;;;;;;4591734;19;20021;-74
2024/01/06 06:47:34;;;;;;;7.07;4.90;;;13.70;79.40;;;;;;4590707;19;19994;-74
2024/01/06 06:49:08;;;;;;;7.67;5.10;;;13.70;79.30;;;;;;4591898;19;20062;-74
2024/01/06 06:50:44;;;;;;;6.53;5.03;;;13.70;79.20;;;;;;4592039;19;20880;-74
2024/01/06 06:52:18;;;;;;;8.77;4.80;;;13.70;79.10;;;;;;4591953;19;20002;-74
2024/01/06 06:53:52;;;;;;;8.17;5.47;;;13.70;79.20;;;;;;4590891;19;20014;-74
2024/01/06 06:55:27;;;;;;;7.87;4.77;;;13.70;79.30;;;;;;4591669;19;20002;-73
2024/01/06 06:57:02;;;;;;;7.70;4.30;;;13.70;79.20;;;;;;4590704;19;20023;-74
2024/01/06 06:58:36;;;;;;;8.13;5.27;;;13.60;79.00;;;;;;4591782;19;20026;-74
2024/01/06 07:00:13;;;;;;;8.40;4.90;;;13.60;78.90;;;;;;4592314;19;20006;-74
2024/01/06 07:01:47;;;;;;;9.30;5.00;;;13.60;78.90;;;;;;4591875;19;20010;-74
2024/01/06 07:03:22;;;;;;;7.90;4.70;;;13.60;79.10;;;;;;4591804;19;20040;-74
2024/01/06 07:04:58;;;;;;;8.37;5.53;;;13.60;79.00;;;;;;4589452;19;20013;-77
2024/01/06 07:06:32;;;;;;;11.00;6.13;;;13.60;79.00;;;;;;4589827;19;20005;-74
2024/01/06 07:08:07;;;;;;;9.33;5.50;;;13.60;79.10;;;;;;4590366;19;20314;-75
2024/01/06 07:09:43;;;;;;;8.17;5.77;;;13.60;79.30;;;;;;4591640;19;20011;-74
2024/01/06 07:11:18;;;;;;;7.60;4.77;;;13.60;79.20;;;;;;4591652;19;20388;-74
2024/01/06 07:12:53;;;;;;;5.63;4.03;;;13.60;79.10;;;;;;4591667;19;20010;-76
2024/01/06 07:14:29;;;;;;;6.07;4.10;;;13.60;79.00;;;;;;4591655;19;20006;-77
2024/01/06 07:16:04;;;;;;;6.40;4.20;;;13.60;79.00;;;;;;4590663;19;20007;-75
2024/01/06 07:17:38;;;;;;;6.50;4.53;;;13.60;78.90;;;;;;4590293;19;20030;-74
2024/01/06 07:19:13;;;;;;;7.50;4.43;;;13.60;78.90;;;;;;4594959;19;20006;-74
2024/01/06 07:20:47;;;;;;;6.70;4.37;;;13.60;78.90;;;;;;4596110;19;20052;-74
2024/01/06 07:22:23;;;;;;;7.73;5.10;;;13.60;78.90;;;;;;4596044;19;20010;-74
2024/01/06 07:23:59;;;;;;;6.93;4.73;;;13.60;78.80;;;;;;4595702;19;20006;-74
2024/01/06 07:25:33;;;;;;;5.83;4.27;;;13.60;79.20;;;;;;4596254;19;20065;-74
2024/01/06 07:27:07;;;;;;;5.97;4.20;;;13.60;79.20;;;;;;4596259;19;20002;-74
2024/01/06 07:28:43;;;;;;;6.57;4.40;;;13.60;79.10;;;;;;4596215;19;20003;-74
2024/01/06 07:30:17;;;;;;;5.97;3.97;;;13.60;79.20;;;;;;4596003;19;20093;-74
2024/01/06 07:31:51;;;;;;;5.27;3.67;;;13.50;79.10;;;;;;4595856;19;20026;-74
2024/01/06 07:33:27;;;;;;;5.83;4.30;;;13.60;79.10;;;;;;4595962;19;19998;-74
2024/01/06 07:35:02;;;;;;;6.77;4.67;;;13.60;79.10;;;;;;4595822;19;19999;-75
2024/01/06 07:36:38;;;;;;;7.13;4.37;;;13.60;79.10;;;;;;4594594;19;20062;-75
2024/01/06 07:38:14;;;;;;;6.33;4.63;;;13.60;79.10;;;;;;4595814;19;20010;-74
2024/01/06 07:39:48;;;;;;;6.07;4.67;;;13.60;79.20;;;;;;4595766;19;20069;-74
2024/01/06 07:41:23;;;;;;;6.07;5.33;;;13.60;79.20;;;;;;4595726;19;19998;-75
2024/01/06 07:42:58;;;;;;;6.87;4.90;;;13.60;79.30;;;;;;4595762;19;20396;-75
2024/01/06 07:44:33;;;;;;;6.30;4.30;;;13.60;79.20;;;;;;4594609;19;20524;-74
2024/01/06 07:46:07;;;;;;;6.30;4.07;;;13.60;78.90;;;;;;4593581;19;20006;-74
2024/01/06 07:47:43;;;;;;;6.93;5.10;;;13.60;79.10;;;;;;4594508;19;20009;-74
2024/01/06 07:49:17;;;;;;;5.37;4.07;;;13.60;78.80;;;;;;4595273;19;20006;-74
2024/01/06 07:50:52;;;;;;;6.83;4.13;;;13.60;78.90;;;;;;4595777;19;20002;-74
2024/01/06 07:52:27;;;;;;;6.67;4.30;;;13.60;78.90;;;;;;4595578;19;20011;-73
2024/01/06 07:54:02;;;;;;;6.13;4.70;;;13.60;78.80;;;;;;4595412;19;20013;-74
2024/01/06 07:55:36;;;;;;;7.13;4.60;;;13.60;78.90;;;;;;4594058;19;20026;-74
2024/01/06 07:57:13;;;;;;;6.23;4.03;;;13.60;78.70;;;;;;4595114;19;20022;-74
2024/01/06 07:58:47;;;;;;;7.27;5.03;;;13.60;78.80;;;;;;4595347;19;20074;-74
2024/01/06 08:00:21;;;;;;;6.73;4.30;;;13.60;78.60;;;;;;4593996;19;20002;-74
2024/01/06 08:01:58;;;;;;;6.73;4.37;;;13.70;78.70;;;;;;4595089;19;20030;-74
2024/01/06 08:03:32;;;;;;;6.97;4.33;;;13.70;78.80;;;;;;4595256;19;20076;-74
2024/01/06 08:05:07;;;;;;;5.03;3.63;;;13.80;78.70;;;;;;4593628;19;20009;-74
2024/01/06 08:06:43;;;;;;;6.30;4.17;;;13.90;78.60;;;;;;4592752;19;20002;-74
2024/01/06 08:08:18;;;;;;;7.03;4.33;;;14.10;78.50;;;;;;4594087;19;20032;-74
2024/01/06 08:09:54;;;;;;;5.87;4.07;;;14.20;78.20;;;;;;4594862;19;20330;-74
2024/01/06 08:11:29;;;;;;;7.23;4.40;;;14.30;78.10;;;;;;4595138;19;20026;-74
2024/01/06 08:13:04;;;;;;;7.47;4.50;;;14.40;78.10;;;;;;4595030;19;20002;-74
2024/01/06 08:14:38;;;;;;;7.17;4.40;;;14.50;78.00;;;;;;4595058;19;19999;-74
2024/01/06 08:16:15;;;;;;;8.97;4.63;;;14.50;77.80;;;;;;4594027;19;20034;-74
2024/01/06 08:17:49;;;;;;;6.73;4.77;;;14.60;77.70;;;;;;4595016;19;20005;-74
2024/01/06 08:19:23;;;;;;;6.87;4.53;;;14.70;77.50;;;;;;4594929;19;20002;-74
2024/01/06 08:20:59;;;;;;;7.40;4.50;;;14.60;77.00;;;;;;4595027;19;20014;-74
2024/01/06 08:22:33;;;;;;;6.87;5.13;;;14.60;76.90;;;;;;4594851;19;20003;-74
2024/01/06 08:24:08;;;;;;;7.87;4.97;;;14.70;76.90;;;;;;4593067;19;20327;-74